Bergitta — C6WM5 — position and weather

sailwx.info

Track history (hours):
 
Tides and Currents Weather Stations Pressure Air Temp Water Temp Dewpoint Dewpoint Depression Visibility Wind Speed Wind Dir Waves Ship Positions

Bergitta

Last reported at 2017-Dec-20 15:02 UTC. Time now 2018-Jan-21 03:03 UTC.
Position N 28°55' W 095°17'.
Warning: this ship's position is 31 days out of date.

Length 240 m; draft 10.4 m.

Type: Tanker. MMSI: 309234000.

Date/timePositionNaut miles runAvg speedWind from/ knotsBaromVisibWave heightAir tempDewpointWater temp
2017-Dec-20 15:02N 28°55' W 095°17'1 7.7
2017-Dec-20 14:56N 28°55' W 095°16'2 5.4
2017-Dec-20 14:30N 28°53' W 095°15'3 6.0
2017-Dec-20 14:00N 28°51' W 095°12'1 2.9
2017-Dec-20 13:31N 28°52' W 095°13'2 4.1
2017-Dec-20 12:59N 28°50' W 095°12'2 4.6
2017-Dec-20 12:30N 28°49' W 095°14'0 0.1
2017-Dec-20 11:52N 28°49' W 095°14'0 0.0
2017-Dec-20 11:25N 28°49' W 095°14'  
Track history (hours):
 
Tides and Currents Weather Stations Pressure Air Temp Water Temp Dewpoint Dewpoint Depression Visibility Wind Speed Wind Dir Waves Ship Positions

Bergitta

Last reported at 2017-Dec-20 15:02 UTC. Time now 2018-Jan-21 03:03 UTC.
Position N 28°55' W 095°17'.
Warning: this ship's position is 31 days out of date.

Length 240 m; draft 10.4 m.

Type: Tanker. MMSI: 309234000.

Date/timePositionNaut miles runAvg speedWind from/ knotsBaromVisibWave heightAir tempDewpointWater temp
2017-Dec-20 15:02N 28°55' W 095°17'1 7.7
2017-Dec-20 14:56N 28°55' W 095°16'2 5.4
2017-Dec-20 14:30N 28°53' W 095°15'3 6.0
2017-Dec-20 14:00N 28°51' W 095°12'1 2.9
2017-Dec-20 13:31N 28°52' W 095°13'2 4.1
2017-Dec-20 12:59N 28°50' W 095°12'2 4.6
2017-Dec-20 12:30N 28°49' W 095°14'0 0.1
2017-Dec-20 11:52N 28°49' W 095°14'0 0.0
2017-Dec-20 11:25N 28°49' W 095°14'  

Dump ship's entire track history